Huntsville Municipal Airport Huntsville US
ICAO: KUTS
IATA: UTS
Category: Medium
Scheduled Services: No

Elevation: 363 ft
TransAlt. 18000 ft.

Airport Communications:
ASOS:119.425
HOUSTON CNTR:134.8
MONTGOMERY CO RDO:122.3
CTAF/UNICOM:122.8

KUTS Zoom In..

Runways:

(A) RW 18 length 5005 ft width 100 ft
---- / hdg 180

(B) RW 36 length 5005 ft width 100 ft
---- / hdg 360

Location; KUTS
Day. 21 / Time. 23.53 Zulu
* Altimeter: 29.90
* Temperature: 22° c. 71.6°f.
* Wind from: VRB° Speed 05 kn.
Dewpoint: 19° c.
Visibility: 10 Statute Miles.
Clouds: Broken 1500 ft.
Clouds: Broken 1900 ft.
Clouds: Overcast 3300 ft.

KUTS 212353Z AUTO VRB05KT 10SM BKN015 BKN019 OVC033 22/19 A2990 RMK AO2 SLP123 60002 T02170189 10228 20206 55011


Wind From VRB°
Speed 05 kn.

  YouTube Music Video
 
jpsmedia.com for Web Design  worldairports.se 2018   terms of use